EHLW

Leeuwarden Air Base Airport

Leeuwarden, The Netherlands
METAR EHLW 231055Z AUTO 05011KT 010V090 9999 OVC094 21/14 Q1022 BLU 04012KT CAVOK RMK R05
Observed Flight Rules
May-23 @ 10:55 UTC (20 minutes ago) Visual Flight Rules
Wind Visibility Clouds
50° at 11 knots 10,000+ meters
  • Overcast at 9,400' AGL
Temperatures Readings
Current 21°C / 70°F
Dewpoint 14°C / 57°F
Humidity 64%
Altimeter 30.18" Hg
Pressure 1022 hPa
Elevation 2
METAR EHLW 231055Z AUTO 05011KT 010V090 9999 OVC094 21/14 Q1022 BLU 04012KT CAVOK RMK R05
Observed Flight Rules
May-23 @ 10:55 UTC
(20 minutes ago)
VFR
Wind Visibility
50° at 11 knots 10,000+ meters
Clouds
  • Overcast at 9,400' AGL
Temperature Dewpoint
21°C / 70°F 14°C / 57°F
Humidity Altimeter Pressure
64% 30.18" Hg 1022 hPa